createdAt,value
2018-06-13T00:01:29.310Z,6.53
2018-06-13T00:04:03.961Z,5.63
2018-06-13T00:06:38.991Z,5.53
2018-06-13T00:09:11.538Z,6.23
2018-06-13T00:11:46.376Z,6.50
2018-06-13T00:14:19.931Z,6.60
2018-06-13T00:16:53.936Z,5.60
2018-06-13T00:19:27.184Z,5.53
2018-06-13T00:22:01.755Z,6.00
2018-06-13T00:24:37.112Z,5.87
2018-06-13T00:27:10.308Z,6.30
2018-06-13T00:29:42.997Z,6.55
2018-06-13T00:32:16.900Z,5.57
2018-06-13T00:34:52.270Z,6.15
2018-06-13T00:37:25.643Z,5.20
2018-06-13T00:39:58.656Z,5.23
2018-06-13T00:42:31.477Z,4.70
2018-06-13T00:45:06.192Z,5.20
2018-06-13T00:47:38.724Z,5.28
2018-06-13T00:50:12.840Z,4.60
2018-06-13T00:52:45.907Z,5.23
2018-06-13T00:55:19.980Z,4.53
2018-06-13T00:57:52.549Z,4.95
2018-06-13T01:00:25.740Z,5.47
2018-06-13T01:02:58.674Z,5.07
2018-06-13T01:05:32.096Z,4.33
2018-06-13T01:08:06.703Z,4.70
2018-06-13T01:10:39.312Z,4.27
2018-06-13T01:13:13.076Z,3.93
2018-06-13T01:15:47.613Z,4.60
2018-06-13T01:18:22.396Z,3.97
2018-06-13T01:20:55.575Z,4.28
2018-06-13T01:23:29.289Z,4.37
2018-06-13T01:26:03.208Z,4.17
2018-06-13T01:28:38.901Z,4.10
2018-06-13T01:31:13.293Z,4.60
2018-06-13T01:33:46.791Z,4.45
2018-06-13T01:36:29.288Z,4.20
2018-06-13T01:39:07.404Z,4.07
2018-06-13T01:41:41.417Z,4.40
2018-06-13T01:44:14.886Z,3.77
2018-06-13T01:46:48.137Z,4.50
2018-06-13T01:49:20.633Z,3.60
2018-06-13T01:51:54.922Z,4.37
2018-06-13T01:54:30.774Z,3.73
2018-06-13T01:57:03.800Z,4.23
2018-06-13T01:59:37.586Z,3.90
2018-06-13T02:02:10.372Z,3.40
2018-06-13T02:04:43.561Z,4.00
2018-06-13T02:07:16.383Z,4.00
2018-06-13T02:09:48.884Z,3.53
2018-06-13T02:12:21.425Z,3.63
2018-06-13T02:14:54.458Z,3.70
2018-06-13T02:17:26.983Z,4.10
2018-06-13T02:20:01.446Z,3.60
2018-06-13T02:22:34.255Z,3.77
2018-06-13T02:25:06.886Z,3.80
2018-06-13T02:27:39.509Z,4.23
2018-06-13T02:30:13.949Z,4.10
2018-06-13T02:32:46.348Z,3.73
2018-06-13T02:35:18.990Z,3.80
2018-06-13T02:37:54.874Z,4.60
2018-06-13T02:40:27.935Z,4.67
2018-06-13T02:43:00.449Z,4.60
2018-06-13T02:45:33.209Z,4.27
2018-06-13T02:48:06.041Z,4.70
2018-06-13T02:50:39.510Z,5.17
2018-06-13T02:53:12.335Z,5.00
2018-06-13T02:55:52.919Z,4.95
2018-06-13T02:58:25.522Z,4.20
2018-06-13T03:00:58.573Z,4.40
2018-06-13T03:03:32.772Z,5.07
2018-06-13T03:06:06.320Z,5.43
2018-06-13T03:08:39.325Z,5.78
2018-06-13T03:11:11.809Z,5.80
2018-06-13T03:13:44.464Z,5.47
2018-06-13T03:16:17.269Z,5.77
2018-06-13T03:18:49.796Z,5.67
2018-06-13T03:21:22.197Z,4.90
2018-06-13T03:23:54.956Z,5.20
2018-06-13T03:26:34.548Z,5.40
2018-06-13T03:29:07.700Z,5.60
2018-06-13T03:31:40.524Z,5.57
2018-06-13T03:34:12.989Z,5.50
2018-06-13T03:36:45.733Z,5.10
2018-06-13T03:39:19.086Z,4.97
2018-06-13T03:41:51.815Z,4.90
2018-06-13T03:44:24.382Z,4.50
2018-06-13T03:46:57.162Z,5.27
2018-06-13T03:49:29.763Z,4.60
2018-06-13T03:52:02.886Z,4.80
2018-06-13T03:54:35.921Z,4.73
2018-06-13T03:57:08.559Z,4.63
2018-06-13T03:59:41.356Z,4.93
2018-06-13T04:02:14.564Z,4.60
2018-06-13T04:04:47.330Z,5.40
2018-06-13T04:07:20.514Z,4.80
2018-06-13T04:09:53.701Z,5.10
2018-06-13T04:12:26.305Z,4.60
2018-06-13T04:14:59.109Z,5.00
2018-06-13T04:17:33.413Z,4.93
2018-06-13T04:20:07.177Z,4.57
2018-06-13T04:22:39.684Z,4.57
2018-06-13T04:25:12.579Z,4.90
2018-06-13T04:27:47.320Z,4.00
2018-06-13T04:30:19.920Z,4.72
2018-06-13T04:32:52.614Z,4.50
2018-06-13T04:35:25.201Z,4.57
2018-06-13T04:37:57.721Z,4.90
2018-06-13T04:40:30.303Z,5.00
2018-06-13T04:43:04.899Z,4.93
2018-06-13T04:45:37.507Z,4.60
2018-06-13T04:48:10.996Z,4.87
2018-06-13T04:50:43.805Z,4.60
2018-06-13T04:53:16.346Z,4.50
2018-06-13T04:55:50.393Z,4.57
2018-06-13T04:58:27.090Z,4.10
2018-06-13T05:00:59.818Z,4.70
2018-06-13T05:03:35.003Z,4.60
2018-06-13T05:06:09.352Z,4.63
2018-06-13T05:08:42.941Z,4.90
2018-06-13T05:11:15.779Z,4.87
2018-06-13T05:13:48.846Z,5.53
2018-06-13T05:16:22.077Z,5.33
2018-06-13T05:18:55.135Z,4.90
2018-06-13T05:21:29.058Z,5.20
2018-06-13T05:24:03.471Z,5.00
2018-06-13T05:26:35.916Z,4.77
2018-06-13T05:29:08.960Z,5.00
2018-06-13T05:31:41.485Z,5.53
2018-06-13T05:34:15.029Z,5.37
2018-06-13T05:36:48.103Z,4.23
2018-06-13T05:39:22.780Z,5.45
2018-06-13T05:41:56.256Z,4.83
2018-06-13T05:44:29.919Z,5.05
2018-06-13T05:47:02.493Z,4.90
2018-06-13T05:49:34.946Z,5.10
2018-06-13T05:52:08.404Z,4.43
2018-06-13T05:54:42.316Z,4.13
2018-06-13T05:57:14.865Z,4.60
2018-06-13T05:59:47.633Z,4.53
2018-06-13T06:02:20.621Z,4.63
2018-06-13T06:04:53.195Z,4.40
2018-06-13T06:07:26.660Z,4.95
2018-06-13T06:10:00.545Z,5.03
2018-06-13T06:12:33.176Z,4.50
2018-06-13T06:15:08.167Z,4.97
2018-06-13T06:17:42.197Z,4.70
2018-06-13T06:20:17.142Z,3.83
2018-06-13T06:22:50.024Z,4.10
2018-06-13T06:25:24.243Z,2.80
2018-06-13T06:27:58.357Z,3.50
2018-06-13T06:30:31.188Z,3.13
2018-06-13T06:33:05.546Z,2.90
2018-06-13T06:35:38.280Z,2.77
2018-06-13T06:38:14.119Z,2.83
2018-06-13T06:40:49.516Z,2.27
2018-06-13T06:43:22.868Z,2.47
2018-06-13T06:45:57.231Z,2.57
2018-06-13T06:48:34.477Z,2.17
2018-06-13T06:51:07.064Z,2.37
2018-06-13T06:53:40.180Z,2.53
2018-06-13T06:56:13.425Z,2.23
2018-06-13T06:58:46.048Z,2.30
2018-06-13T07:01:18.740Z,2.07
2018-06-13T07:03:54.818Z,2.30
2018-06-13T07:06:27.833Z,2.50
2018-06-13T07:09:04.423Z,1.80
2018-06-13T07:11:37.670Z,2.17
2018-06-13T07:14:11.068Z,2.30
2018-06-13T07:16:44.096Z,2.42
2018-06-13T07:19:17.166Z,2.40
2018-06-13T07:21:50.045Z,2.60
2018-06-13T07:24:22.870Z,2.37
2018-06-13T07:26:58.288Z,2.17
2018-06-13T07:29:35.732Z,2.73
2018-06-13T07:32:09.707Z,2.80
2018-06-13T07:34:44.230Z,2.30
2018-06-13T07:37:17.007Z,2.50
2018-06-13T07:39:49.545Z,2.53
2018-06-13T07:42:22.405Z,2.43
2018-06-13T07:44:57.068Z,2.50
2018-06-13T07:47:30.668Z,2.10
2018-06-13T07:50:04.561Z,2.27
2018-06-13T07:52:39.100Z,2.80
2018-06-13T07:55:11.897Z,2.10
2018-06-13T07:57:44.825Z,2.17
2018-06-13T08:00:17.473Z,2.53
2018-06-13T08:02:50.877Z,1.90
2018-06-13T08:05:24.050Z,1.87
2018-06-13T08:07:57.233Z,2.35
2018-06-13T08:10:31.228Z,2.12
2018-06-13T08:13:06.075Z,2.17
2018-06-13T08:15:40.112Z,1.90
2018-06-13T08:18:15.764Z,1.67
2018-06-13T08:20:52.351Z,2.00
2018-06-13T08:23:25.901Z,1.77
2018-06-13T08:26:00.694Z,1.70
2018-06-13T08:28:35.234Z,1.70
2018-06-13T08:31:10.337Z,1.40
2018-06-13T08:33:43.708Z,1.30
2018-06-13T08:36:17.473Z,1.80
2018-06-13T08:38:54.021Z,1.50
2018-06-13T08:41:29.861Z,1.40
2018-06-13T08:44:04.204Z,1.57
2018-06-13T08:46:38.171Z,1.50
2018-06-13T08:49:12.923Z,1.60
2018-06-13T08:51:47.043Z,1.60
2018-06-13T08:54:20.259Z,1.30
2018-06-13T08:56:52.692Z,1.53
2018-06-13T08:59:26.218Z,1.63
2018-06-13T09:02:00.115Z,1.10
2018-06-13T09:04:40.369Z,1.53
2018-06-13T09:07:14.949Z,1.50
2018-06-13T09:09:49.688Z,1.50
2018-06-13T09:12:23.617Z,1.90
2018-06-13T09:14:57.283Z,2.03
2018-06-13T09:17:31.942Z,1.60
2018-06-13T09:20:05.922Z,1.43
2018-06-13T09:22:38.318Z,1.43
2018-06-13T09:25:10.663Z,1.60
2018-06-13T09:27:46.730Z,1.87
2018-06-13T09:30:22.328Z,2.40
2018-06-13T09:32:54.968Z,2.17
2018-06-13T09:35:30.909Z,2.20
2018-06-13T09:38:03.858Z,2.20
2018-06-13T09:40:36.383Z,2.10
2018-06-13T09:43:09.614Z,2.30
2018-06-13T09:45:42.969Z,2.00
2018-06-13T09:48:15.504Z,2.27
2018-06-13T09:50:48.561Z,2.87
2018-06-13T09:53:21.128Z,2.42
2018-06-13T09:55:53.695Z,2.30
2018-06-13T09:59:12.839Z,2.60
2018-06-13T10:02:05.741Z,2.70
2018-06-13T10:04:49.241Z,2.50
2018-06-13T10:07:23.000Z,2.17
2018-06-13T10:09:57.544Z,2.00
2018-06-13T10:12:34.942Z,2.33
2018-06-13T10:15:17.977Z,2.40
2018-06-13T10:17:51.467Z,2.70
2018-06-13T10:20:25.154Z,2.83
2018-06-13T10:22:58.495Z,2.77
2018-06-13T10:25:31.524Z,2.60
2018-06-13T10:28:07.609Z,2.40
2018-06-13T10:30:40.192Z,1.97
2018-06-13T10:33:12.714Z,2.60
2018-06-13T10:35:45.629Z,1.80
2018-06-13T10:38:18.085Z,2.50
2018-06-13T10:40:52.539Z,2.20
2018-06-13T10:43:25.833Z,2.67
2018-06-13T10:46:01.132Z,2.40
2018-06-13T10:48:37.370Z,1.83
2018-06-13T10:51:10.822Z,2.03
2018-06-13T10:53:45.687Z,1.90
2018-06-13T10:56:23.292Z,1.83
2018-06-13T10:58:58.311Z,1.80
2018-06-13T11:01:34.844Z,2.47
2018-06-13T11:04:07.659Z,2.30
2018-06-13T11:06:42.363Z,2.17
2018-06-13T11:09:17.335Z,2.20
2018-06-13T11:11:50.258Z,2.00
2018-06-13T11:14:23.624Z,2.20
2018-06-13T11:16:57.803Z,2.55
2018-06-13T11:19:30.473Z,2.00
2018-06-13T11:22:04.934Z,2.70
2018-06-13T11:24:39.613Z,2.40
2018-06-13T11:27:13.229Z,3.23
2018-06-13T11:29:46.619Z,3.30
2018-06-13T11:32:20.609Z,3.00
2018-06-13T11:34:57.372Z,2.80
2018-06-13T11:37:29.903Z,3.10
2018-06-13T11:40:10.392Z,3.23
2018-06-13T11:42:46.923Z,3.03
2018-06-13T11:45:21.463Z,3.57
2018-06-13T11:47:55.207Z,3.27
2018-06-13T11:50:28.445Z,3.00
2018-06-13T11:53:03.832Z,3.40
2018-06-13T11:55:41.103Z,3.93
2018-06-13T11:58:14.372Z,5.17
2018-06-13T12:00:51.317Z,4.83
2018-06-13T12:03:33.807Z,7.03
2018-06-13T12:06:10.470Z,5.37
2018-06-13T12:08:49.608Z,4.73
2018-06-13T12:11:22.660Z,4.23
2018-06-13T12:13:57.932Z,4.27
2018-06-13T12:16:32.479Z,3.53
2018-06-13T12:19:05.050Z,4.00
2018-06-13T12:21:39.807Z,3.43
2018-06-13T12:24:13.353Z,3.07
2018-06-13T12:26:48.114Z,2.90
2018-06-13T12:29:21.900Z,3.00
2018-06-13T12:31:58.773Z,4.07
2018-06-13T12:34:32.365Z,4.53
2018-06-13T12:37:09.863Z,4.50
2018-06-13T12:39:50.520Z,4.30
2018-06-13T12:42:24.431Z,3.50
2018-06-13T12:45:00.770Z,3.83
2018-06-13T12:47:41.892Z,3.97
2018-06-13T12:50:19.596Z,3.50
2018-06-13T12:52:58.641Z,3.50
2018-06-13T12:55:39.984Z,3.10
2018-06-13T12:58:15.804Z,3.30
2018-06-13T13:00:51.395Z,2.63
2018-06-13T13:03:26.627Z,2.93
2018-06-13T13:06:03.582Z,2.53
2018-06-13T13:08:39.017Z,2.83
2018-06-13T13:11:11.791Z,2.80
2018-06-13T13:13:47.302Z,3.40
2018-06-13T13:16:20.831Z,3.20
2018-06-13T13:18:57.484Z,3.03
2018-06-13T13:21:33.624Z,3.63
2018-06-13T13:24:07.052Z,2.93
2018-06-13T13:26:41.734Z,3.40
2018-06-13T13:29:15.609Z,3.15
2018-06-13T13:31:51.821Z,3.22
2018-06-13T13:34:29.553Z,3.30
2018-06-13T13:37:04.326Z,2.77
2018-06-13T13:39:58.370Z,3.50
2018-06-13T13:42:32.310Z,2.90
2018-06-13T13:45:06.919Z,4.60
2018-06-13T13:47:42.226Z,4.00
2018-06-13T13:50:16.693Z,4.23
2018-06-13T13:52:55.802Z,3.53
2018-06-13T13:55:36.040Z,3.43
2018-06-13T13:58:19.128Z,3.13
2018-06-13T14:01:11.751Z,2.50
2018-06-13T14:03:46.312Z,2.60
2018-06-13T14:06:24.250Z,2.80
2018-06-13T14:09:00.339Z,2.57
2018-06-13T14:11:33.080Z,3.00
2018-06-13T14:14:07.693Z,2.80
2018-06-13T14:16:41.983Z,2.87
2018-06-13T14:19:15.266Z,3.43
2018-06-13T14:21:52.813Z,3.17
2018-06-13T14:24:26.711Z,3.00
2018-06-13T14:27:05.749Z,4.20
2018-06-13T14:29:40.051Z,3.57
2018-06-13T14:32:12.776Z,3.53
2018-06-13T14:34:46.526Z,3.17
2018-06-13T14:37:23.870Z,3.37
2018-06-13T14:39:59.483Z,2.73
2018-06-13T14:42:33.360Z,3.08
2018-06-13T14:45:07.416Z,3.10
2018-06-13T14:47:40.794Z,2.40
2018-06-13T14:50:18.824Z,2.80
2018-06-13T14:52:53.589Z,2.30
2018-06-13T14:55:45.569Z,2.00
2018-06-13T14:58:26.522Z,1.93
2018-06-13T15:01:27.253Z,2.07
2018-06-13T15:04:09.137Z,2.17
2018-06-13T15:06:46.304Z,2.43
2018-06-13T15:09:21.341Z,3.10
2018-06-13T15:11:56.557Z,2.80
2018-06-13T15:14:30.888Z,2.70
2018-06-13T15:17:04.391Z,3.00
2018-06-13T15:19:40.989Z,2.27
2018-06-13T15:22:16.945Z,2.80
2018-06-13T15:24:51.205Z,2.70
2018-06-13T15:27:25.628Z,2.70
2018-06-13T15:30:03.529Z,2.90
2018-06-13T15:32:36.998Z,2.60
2018-06-13T15:35:13.937Z,2.50
2018-06-13T15:37:48.895Z,2.40
2018-06-13T15:40:23.214Z,2.60
2018-06-13T15:43:04.502Z,2.70
2018-06-13T15:45:38.603Z,2.42
2018-06-13T15:48:14.877Z,2.30
2018-06-13T15:50:50.603Z,2.40
2018-06-13T15:53:24.786Z,2.08
2018-06-13T15:56:01.361Z,2.37
2018-06-13T15:58:34.080Z,2.00
2018-06-13T16:01:07.134Z,2.10
2018-06-13T16:03:42.607Z,2.00
2018-06-13T16:06:17.914Z,1.80
2018-06-13T16:08:52.719Z,2.50
2018-06-13T16:11:27.291Z,1.60
2018-06-13T16:14:02.454Z,2.27
2018-06-13T16:16:39.328Z,1.80
2018-06-13T16:19:13.053Z,1.87
2018-06-13T16:21:46.772Z,1.90
2018-06-13T16:24:21.704Z,2.33
2018-06-13T16:26:55.292Z,2.50
2018-06-13T16:29:32.126Z,2.10
2018-06-13T16:32:09.379Z,1.87
2018-06-13T16:34:49.173Z,2.30
2018-06-13T16:37:30.598Z,2.27
2018-06-13T16:40:06.842Z,2.40
2018-06-13T16:42:44.026Z,2.40
2018-06-13T16:45:18.682Z,2.23
2018-06-13T16:47:52.131Z,2.23
2018-06-13T16:51:45.112Z,1.87
2018-06-13T16:54:53.883Z,1.80
2018-06-13T16:57:33.366Z,2.00
2018-06-13T17:00:08.357Z,2.50
2018-06-13T17:02:50.593Z,2.30
2018-06-13T17:05:27.228Z,2.00
2018-06-13T17:08:01.535Z,2.07
2018-06-13T17:10:36.213Z,1.93
2018-06-13T17:13:10.013Z,1.70
2018-06-13T17:15:47.305Z,1.77
2018-06-13T17:18:22.988Z,1.90
2018-06-13T17:20:58.305Z,1.50
2018-06-13T17:23:37.740Z,1.60
2018-06-13T17:26:11.245Z,1.60
2018-06-13T17:28:59.080Z,2.60
2018-06-13T17:34:20.101Z,2.10
2018-06-13T17:36:58.286Z,1.97
2018-06-13T17:39:32.887Z,2.27
2018-06-13T17:42:09.070Z,1.83
2018-06-13T17:44:45.742Z,1.90
2018-06-13T17:47:19.552Z,1.80
2018-06-13T17:49:55.443Z,2.40
2018-06-13T17:52:32.459Z,1.80
2018-06-13T17:55:11.017Z,2.20
2018-06-13T17:57:47.561Z,1.97
2018-06-13T18:00:24.707Z,2.50
2018-06-13T18:03:01.850Z,2.07
2018-06-13T18:05:35.093Z,2.67
2018-06-13T18:08:11.822Z,2.00
2018-06-13T18:10:47.114Z,1.90
2018-06-13T18:13:23.075Z,1.63
2018-06-13T18:15:59.842Z,2.13
2018-06-13T18:18:37.073Z,2.10
2018-06-13T18:21:14.404Z,1.80
2018-06-13T18:23:52.360Z,1.77
2018-06-13T18:26:27.030Z,2.20
2018-06-13T18:29:02.452Z,1.70
2018-06-13T18:31:43.179Z,1.93
2018-06-13T18:34:16.996Z,2.08
2018-06-13T18:36:54.353Z,1.90
2018-06-13T18:39:27.647Z,1.63
2018-06-13T18:42:02.151Z,1.70
2018-06-13T18:44:37.023Z,1.80
2018-06-13T18:47:15.085Z,1.90
2018-06-13T18:49:50.921Z,1.97
2018-06-13T18:52:26.242Z,2.00
2018-06-13T18:55:08.298Z,2.03
2018-06-13T18:57:44.965Z,2.40
2018-06-13T19:00:21.366Z,2.10
2018-06-13T19:03:01.767Z,2.50
2018-06-13T19:05:41.321Z,2.00
2018-06-13T19:08:22.230Z,1.90
2018-06-13T19:11:01.818Z,2.10
2018-06-13T19:13:35.812Z,2.00
2018-06-13T19:16:10.712Z,2.13
2018-06-13T19:18:43.812Z,2.13
2018-06-13T19:21:23.177Z,2.20
2018-06-13T19:24:07.588Z,2.10
2018-06-13T19:26:44.526Z,1.80
2018-06-13T19:29:27.597Z,1.70
2018-06-13T19:32:05.848Z,1.80
2018-06-13T19:34:43.297Z,1.73
2018-06-13T19:37:18.898Z,2.00
2018-06-13T19:39:54.812Z,1.83
2018-06-13T19:42:29.798Z,2.40
2018-06-13T19:45:05.013Z,2.40
2018-06-13T19:47:54.881Z,2.20
2018-06-13T19:50:37.573Z,2.40
2018-06-13T19:53:18.028Z,1.90
2018-06-13T19:55:56.538Z,2.30
2018-06-13T19:58:33.105Z,2.73
2018-06-13T20:01:06.612Z,3.43
2018-06-13T20:03:44.963Z,2.13
2018-06-13T20:06:21.614Z,2.57
2018-06-13T20:08:56.094Z,2.40
2018-06-13T20:11:30.572Z,3.10
2018-06-13T20:14:17.723Z,2.77
2018-06-13T20:17:02.912Z,2.70
2018-06-13T20:19:40.866Z,2.20
2018-06-13T20:22:20.806Z,2.70
2018-06-13T20:27:54.410Z,2.50
2018-06-13T20:30:34.026Z,2.33
2018-06-13T20:33:06.868Z,2.83
2018-06-13T20:35:41.990Z,3.20
2018-06-13T20:38:46.700Z,3.17
2018-06-13T20:41:19.412Z,2.47
2018-06-13T20:43:53.528Z,3.63
2018-06-13T20:46:30.297Z,3.40
2018-06-13T20:49:05.097Z,3.60
2018-06-13T20:51:41.794Z,4.10
2018-06-13T20:54:31.791Z,3.33
2018-06-13T20:57:09.302Z,3.40
2018-06-13T20:59:53.193Z,3.30
2018-06-13T21:02:26.768Z,3.80
2018-06-13T21:05:00.380Z,4.23
2018-06-13T21:07:34.185Z,4.27
2018-06-13T21:10:11.298Z,4.10
2018-06-13T21:12:46.053Z,4.20
2018-06-13T21:15:20.062Z,4.43
2018-06-13T21:17:55.918Z,3.83
2018-06-13T21:20:30.312Z,5.60
2018-06-13T21:23:05.994Z,3.80
2018-06-13T21:25:39.796Z,3.47
2018-06-13T21:28:14.414Z,4.57
2018-06-13T21:30:50.613Z,4.63
2018-06-13T21:33:27.270Z,5.10
2018-06-13T21:36:03.770Z,3.70
2018-06-13T21:38:39.102Z,4.07
2018-06-13T21:41:39.095Z,4.50
2018-06-13T21:44:12.899Z,5.82
2018-06-13T21:46:48.580Z,5.07
2018-06-13T21:49:23.426Z,4.73
2018-06-13T21:52:01.009Z,4.80
2018-06-13T21:54:34.152Z,4.47
2018-06-13T21:57:08.068Z,5.10
2018-06-13T21:59:40.645Z,5.00
2018-06-13T22:02:13.124Z,4.87
2018-06-13T22:04:46.832Z,5.73
2018-06-13T22:07:20.360Z,5.23
2018-06-13T22:09:56.400Z,4.80
2018-06-13T22:12:31.265Z,4.80
2018-06-13T22:15:13.655Z,5.03
2018-06-13T22:17:47.516Z,5.00
2018-06-13T22:20:21.595Z,5.37
2018-06-13T22:22:59.181Z,6.07
2018-06-13T22:25:31.835Z,5.07
2018-06-13T22:28:05.357Z,6.97
2018-06-13T22:30:38.933Z,6.10
2018-06-13T22:33:13.674Z,6.10
2018-06-13T22:35:46.988Z,6.47
2018-06-13T22:38:23.487Z,4.93
2018-06-13T22:41:00.173Z,5.77
2018-06-13T22:43:34.721Z,5.20
2018-06-13T22:46:09.561Z,7.45
2018-06-13T22:48:46.150Z,6.53
2018-06-13T22:51:25.097Z,5.77
2018-06-13T22:53:59.911Z,6.37
2018-06-13T22:56:33.938Z,6.97
2018-06-13T22:59:07.033Z,6.67
2018-06-13T23:01:40.410Z,6.67
2018-06-13T23:04:14.051Z,5.33
2018-06-13T23:06:47.094Z,5.93
2018-06-13T23:09:21.186Z,6.27
2018-06-13T23:11:57.456Z,5.93
2018-06-13T23:14:31.922Z,6.53
2018-06-13T23:17:07.521Z,6.93
2018-06-13T23:19:40.212Z,6.03
2018-06-13T23:22:14.591Z,6.70
2018-06-13T23:24:51.312Z,6.70
2018-06-13T23:27:25.277Z,6.47
2018-06-13T23:29:58.170Z,6.13
2018-06-13T23:32:33.333Z,6.60
2018-06-13T23:35:06.424Z,6.80
2018-06-13T23:37:41.031Z,6.00
2018-06-13T23:40:15.570Z,7.70
2018-06-13T23:42:50.817Z,6.57
2018-06-13T23:45:24.352Z,6.70
2018-06-13T23:47:57.775Z,7.87
2018-06-13T23:50:31.708Z,6.80
2018-06-13T23:53:06.430Z,7.40
2018-06-13T23:55:40.385Z,6.90
2018-06-13T23:58:14.608Z,9.00
